createdAt,value
2022-09-05T00:02:01.957Z,19.92
2022-09-05T00:04:24.616Z,19.75
2022-09-05T00:06:38.023Z,22.25
2022-09-05T00:08:54.835Z,20.05
2022-09-05T00:11:40.659Z,20.23
2022-09-05T00:13:42.524Z,17.45
2022-09-05T00:16:02.442Z,17.90
2022-09-05T00:20:53.802Z,19.10
2022-09-05T00:24:20.190Z,16.40
2022-09-05T00:24:28.183Z,15.20
2022-09-05T00:26:33.968Z,16.42
2022-09-05T00:28:47.082Z,15.85
2022-09-05T00:31:54.275Z,16.77
2022-09-05T00:33:57.317Z,16.02
2022-09-05T00:36:20.925Z,17.17
2022-09-05T00:38:36.990Z,13.32
2022-09-05T00:40:49.570Z,12.80
2022-09-05T00:42:59.827Z,14.18
2022-09-05T00:45:14.539Z,14.25
2022-09-05T00:47:39.223Z,15.93
2022-09-05T00:49:52.665Z,14.95
2022-09-05T00:52:08.182Z,12.77
2022-09-05T00:54:41.814Z,13.25
2022-09-05T00:57:03.250Z,13.90
2022-09-05T00:59:58.938Z,13.98
2022-09-05T01:02:17.626Z,15.45
2022-09-05T01:04:39.343Z,13.40
2022-09-05T01:07:12.379Z,15.23
2022-09-05T01:09:34.001Z,14.02
2022-09-05T01:11:53.678Z,14.82
2022-09-05T01:14:13.139Z,14.90
2022-09-05T01:16:29.307Z,14.65
2022-09-05T01:18:49.733Z,11.63
2022-09-05T01:21:28.859Z,12.68
2022-09-05T01:23:57.809Z,12.07
2022-09-05T01:26:27.308Z,11.57
2022-09-05T01:29:15.939Z,9.80
2022-09-05T01:31:18.335Z,10.20
2022-09-05T01:33:37.183Z,10.63
2022-09-05T01:36:12.419Z,10.02
2022-09-05T01:38:29.330Z,11.23
2022-09-05T01:40:53.686Z,9.18
2022-09-05T01:43:25.031Z,10.90
2022-09-05T01:45:50.628Z,9.75
2022-09-05T01:48:05.742Z,10.02
2022-09-05T01:50:35.917Z,10.32
2022-09-05T01:53:00.475Z,10.35
2022-09-05T01:55:25.913Z,13.50
2022-09-05T01:57:44.101Z,10.88
2022-09-05T01:59:55.531Z,10.30
2022-09-05T02:02:24.468Z,9.88
2022-09-05T02:05:00.292Z,11.32
2022-09-05T02:07:30.530Z,10.18
2022-09-05T02:09:51.168Z,8.93
2022-09-05T02:12:08.261Z,9.30
2022-09-05T02:14:33.686Z,8.70
2022-09-05T02:16:47.205Z,10.32
2022-09-05T02:19:02.372Z,9.98
2022-09-05T02:21:16.976Z,10.82
2022-09-05T02:23:41.618Z,10.45
2022-09-05T02:26:01.304Z,10.45
2022-09-05T02:28:18.259Z,11.03
2022-09-05T02:30:28.356Z,10.80
2022-09-05T02:32:45.523Z,10.85
2022-09-05T02:35:01.307Z,9.77
2022-09-05T02:37:15.190Z,11.48
2022-09-05T02:45:03.689Z,10.23
2022-09-05T02:45:07.952Z,10.88
2022-09-05T02:45:09.926Z,11.43
2022-09-05T02:47:16.280Z,10.93
2022-09-05T02:50:51.723Z,11.15
2022-09-05T02:57:27.322Z,10.52
2022-09-05T02:57:39.230Z,10.15
2022-09-05T02:58:07.335Z,12.93
2022-09-05T03:00:10.838Z,10.32
2022-09-05T03:02:27.110Z,9.68
2022-09-05T03:04:43.020Z,10.60
2022-09-05T03:07:07.308Z,10.88
2022-09-05T03:09:29.386Z,10.32
2022-09-05T03:14:47.030Z,10.27
2022-09-05T03:17:38.711Z,9.93
2022-09-05T03:20:32.075Z,10.50
2022-09-05T03:23:14.887Z,10.63
2022-09-05T03:25:54.223Z,10.50
2022-09-05T03:28:30.036Z,11.20
2022-09-05T03:30:58.392Z,10.73
2022-09-05T03:33:44.452Z,11.55
2022-09-05T03:36:23.989Z,11.18
2022-09-05T03:39:01.275Z,11.32
2022-09-05T03:41:33.853Z,10.98
2022-09-05T03:44:16.518Z,10.63
2022-09-05T03:46:44.432Z,12.70
2022-09-05T03:51:24.367Z,12.63
2022-09-05T03:57:04.925Z,15.02
2022-09-05T03:57:25.100Z,14.30
2022-09-05T03:57:49.993Z,10.90
2022-09-05T04:00:09.307Z,10.80
2022-09-05T04:08:09.760Z,10.27
2022-09-05T04:08:23.745Z,11.63
2022-09-05T04:08:28.209Z,11.38
2022-09-05T04:10:00.527Z,11.40
2022-09-05T04:12:21.212Z,11.25
2022-09-05T04:14:30.440Z,11.32
2022-09-05T04:16:52.601Z,11.80
2022-09-05T04:19:12.400Z,12.57
2022-09-05T04:21:23.933Z,12.15
2022-09-05T04:23:38.846Z,11.85
2022-09-05T04:26:11.010Z,11.25
2022-09-05T04:28:34.280Z,11.57
2022-09-05T04:30:46.588Z,10.60
2022-09-05T04:33:01.035Z,10.25
2022-09-05T04:35:24.445Z,10.55
2022-09-05T04:37:49.192Z,10.48
2022-09-05T04:39:56.648Z,10.95
2022-09-05T04:42:20.808Z,10.45
2022-09-05T04:44:34.483Z,11.05
2022-09-05T04:46:48.495Z,10.32
2022-09-05T04:49:04.924Z,10.05
2022-09-05T04:51:29.679Z,12.50
2022-09-05T04:53:58.249Z,10.70
2022-09-05T04:56:09.019Z,11.07
2022-09-05T04:59:17.433Z,11.13
2022-09-05T05:06:02.966Z,10.30
2022-09-05T05:06:12.588Z,10.50
2022-09-05T05:06:30.102Z,11.00
2022-09-05T05:08:38.921Z,10.30
2022-09-05T05:14:17.595Z,9.85
2022-09-05T05:17:54.907Z,10.13
2022-09-05T05:18:15.329Z,9.93
2022-09-05T05:18:39.509Z,12.45
2022-09-05T05:21:04.638Z,10.38
2022-09-05T05:23:14.421Z,9.93
2022-09-05T05:25:22.273Z,10.48
2022-09-05T05:27:40.101Z,10.73
2022-09-05T05:29:53.684Z,10.82
2022-09-05T05:32:03.602Z,12.82
2022-09-05T05:34:24.513Z,10.55
2022-09-05T05:38:48.673Z,10.77
2022-09-05T05:41:00.053Z,10.93
2022-09-05T05:45:31.056Z,11.98
2022-09-05T05:47:41.623Z,10.68
2022-09-05T05:49:57.506Z,11.10
2022-09-05T05:52:37.864Z,10.77
2022-09-05T05:54:51.297Z,10.95
2022-09-05T05:58:00.748Z,12.38
2022-09-05T06:00:28.121Z,10.65
2022-09-05T06:03:25.124Z,11.15
2022-09-05T06:06:16.916Z,11.48
2022-09-05T06:11:57.017Z,12.30
2022-09-05T06:14:56.052Z,11.95
2022-09-05T06:14:57.017Z,11.73
2022-09-05T06:17:52.387Z,12.15
2022-09-05T06:22:11.745Z,11.30
2022-09-05T06:23:39.226Z,12.02
2022-09-05T06:26:23.711Z,11.85
2022-09-05T06:28:46.105Z,11.27
2022-09-05T06:31:29.060Z,11.13
2022-09-05T06:33:49.052Z,10.90
2022-09-05T06:36:08.107Z,10.77
2022-09-05T06:38:29.625Z,12.15
2022-09-05T06:40:41.725Z,11.38
2022-09-05T06:43:08.924Z,12.38
2022-09-05T06:45:34.793Z,11.57
2022-09-05T06:47:45.147Z,11.82
2022-09-05T06:50:23.751Z,11.60
2022-09-05T06:53:08.205Z,12.15
2022-09-05T06:56:06.402Z,11.30
2022-09-05T06:58:43.129Z,13.40
2022-09-05T07:00:51.994Z,11.02
2022-09-05T07:03:29.201Z,10.82
2022-09-05T07:05:45.748Z,11.00
2022-09-05T07:07:56.552Z,11.35
2022-09-05T07:10:34.688Z,10.55
2022-09-05T07:12:40.966Z,11.13
2022-09-05T07:15:08.516Z,10.90
2022-09-05T07:17:20.721Z,12.27
2022-09-05T07:19:31.282Z,11.07
2022-09-05T07:21:49.184Z,11.95
2022-09-05T07:24:08.959Z,11.88
2022-09-05T07:26:25.253Z,12.10
2022-09-05T07:28:48.810Z,12.18
2022-09-05T07:31:04.250Z,11.73
2022-09-05T07:33:12.181Z,11.63
2022-09-05T07:35:22.694Z,11.75
2022-09-05T07:37:40.632Z,12.77
2022-09-05T07:39:54.067Z,10.20
2022-09-05T07:42:05.582Z,11.88
2022-09-05T07:44:22.203Z,11.85
2022-09-05T07:46:32.080Z,12.48
2022-09-05T07:48:43.058Z,12.38
2022-09-05T07:56:19.231Z,11.93
2022-09-05T07:56:59.650Z,11.05
2022-09-05T07:57:04.793Z,11.05
2022-09-05T07:58:32.730Z,11.75
2022-09-05T08:00:40.152Z,11.48
2022-09-05T08:02:52.690Z,11.05
2022-09-05T08:05:07.634Z,12.35
2022-09-05T08:07:49.636Z,11.13
2022-09-05T08:10:09.497Z,11.52
2022-09-05T08:12:27.623Z,12.25
2022-09-05T08:14:46.504Z,10.75
2022-09-05T08:16:53.786Z,12.07
2022-09-05T08:19:13.783Z,11.82
2022-09-05T08:21:27.839Z,11.52
2022-09-05T08:23:55.474Z,10.55
2022-09-05T08:26:11.257Z,11.48
2022-09-05T08:28:22.745Z,8.82
2022-09-05T08:30:30.960Z,8.73
2022-09-05T08:32:46.329Z,8.25
2022-09-05T08:34:58.263Z,11.07
2022-09-05T08:39:14.778Z,9.98
2022-09-05T08:41:43.159Z,9.70
2022-09-05T08:46:44.173Z,10.25
2022-09-05T08:46:49.257Z,11.38
2022-09-05T08:49:36.915Z,10.85
2022-09-05T08:51:55.408Z,10.30
2022-09-05T08:54:19.754Z,7.72
2022-09-05T08:56:33.938Z,9.50
2022-09-05T08:59:28.002Z,7.28
2022-09-05T09:01:36.866Z,7.47
2022-09-05T09:05:00.645Z,8.60
2022-09-05T09:07:43.673Z,8.00
2022-09-05T09:09:51.385Z,7.45
2022-09-05T09:12:05.678Z,8.02
2022-09-05T09:14:48.352Z,7.95
2022-09-05T09:17:06.235Z,8.15
2022-09-05T09:19:18.750Z,7.50
2022-09-05T09:21:45.941Z,8.88
2022-09-05T09:23:58.899Z,8.25
2022-09-05T09:26:17.132Z,10.52
2022-09-05T09:28:51.820Z,9.77
2022-09-05T09:31:02.486Z,8.52
2022-09-05T09:33:13.914Z,8.90
2022-09-05T09:35:30.475Z,12.57
2022-09-05T09:38:04.477Z,9.35
2022-09-05T09:40:32.956Z,9.57
2022-09-05T09:42:49.045Z,9.18
2022-09-05T09:45:29.545Z,7.88
2022-09-05T09:48:17.446Z,8.52
2022-09-05T09:50:41.965Z,7.50
2022-09-05T09:53:17.793Z,8.68
2022-09-05T09:55:51.848Z,7.50
2022-09-05T09:58:17.514Z,8.52
2022-09-05T10:00:27.523Z,9.13
2022-09-05T10:08:59.761Z,7.88
2022-09-05T10:10:38.496Z,7.75
2022-09-05T10:10:49.029Z,9.52
2022-09-05T10:11:53.524Z,7.28
2022-09-05T10:14:49.974Z,8.73
2022-09-05T10:17:21.892Z,8.45
2022-09-05T10:20:09.851Z,8.13
2022-09-05T10:22:36.744Z,8.57
2022-09-05T10:25:12.190Z,8.02
2022-09-05T10:27:49.660Z,9.13
2022-09-05T10:30:13.857Z,8.60
2022-09-05T10:35:08.324Z,7.78
2022-09-05T10:35:17.459Z,8.02
2022-09-05T10:37:36.308Z,10.48
2022-09-05T10:39:48.202Z,7.43
2022-09-05T10:44:13.268Z,7.18
2022-09-05T10:46:50.196Z,8.73
2022-09-05T10:49:09.771Z,7.55
2022-09-05T10:51:27.840Z,14.07
2022-09-05T10:53:44.359Z,11.75
2022-09-05T10:56:05.255Z,11.13
2022-09-05T10:58:52.494Z,12.43
2022-09-05T11:02:21.588Z,12.10
2022-09-05T11:03:46.825Z,11.30
2022-09-05T11:06:09.228Z,13.50
2022-09-05T11:08:27.408Z,11.15
2022-09-05T11:10:40.483Z,14.52
2022-09-05T11:13:01.275Z,15.98
2022-09-05T11:15:16.405Z,14.20
2022-09-05T11:17:36.330Z,12.25
2022-09-05T11:19:47.654Z,12.65
2022-09-05T11:22:22.259Z,13.02
2022-09-05T11:24:39.604Z,12.88
2022-09-05T11:26:58.253Z,14.13
2022-09-05T11:29:21.764Z,12.18
2022-09-05T11:32:19.103Z,12.02
2022-09-05T11:39:48.695Z,9.55
2022-09-05T11:39:54.294Z,15.38
2022-09-05T11:40:52.425Z,9.57
2022-09-05T11:44:25.328Z,9.82
2022-09-05T11:46:33.611Z,9.60
2022-09-05T11:49:16.996Z,9.18
2022-09-05T11:51:56.781Z,8.77
2022-09-05T11:54:33.660Z,10.88
2022-09-05T11:57:33.230Z,9.38
2022-09-05T12:00:32.813Z,9.13
2022-09-05T12:03:09.205Z,12.27
2022-09-05T12:05:59.207Z,11.90
2022-09-05T12:08:12.634Z,11.77
2022-09-05T12:10:46.306Z,8.35
2022-09-05T12:13:08.850Z,6.80
2022-09-05T12:15:38.865Z,6.30
2022-09-05T12:18:19.585Z,6.50
2022-09-05T12:20:43.326Z,5.85
2022-09-05T12:22:59.765Z,5.13
2022-09-05T12:27:38.930Z,5.43
2022-09-05T12:29:09.574Z,5.10
2022-09-05T12:31:00.745Z,5.32
2022-09-05T12:36:05.916Z,4.80
2022-09-05T12:36:11.512Z,5.25
2022-09-05T12:41:42.466Z,4.47
2022-09-05T12:41:45.235Z,5.28
2022-09-05T12:44:37.783Z,4.05
2022-09-05T12:46:24.807Z,7.57
2022-09-05T12:48:42.211Z,4.47
2022-09-05T12:50:59.232Z,4.57
2022-09-05T12:53:11.795Z,6.85
2022-09-05T12:55:33.617Z,4.40
2022-09-05T13:00:41.115Z,5.25
2022-09-05T13:02:57.373Z,4.70
2022-09-05T13:03:04.349Z,4.95
2022-09-05T13:05:20.686Z,4.28
2022-09-05T13:07:35.535Z,5.82
2022-09-05T13:13:30.569Z,5.05
2022-09-05T13:14:57.460Z,4.47
2022-09-05T13:15:22.792Z,6.38
2022-09-05T13:17:44.277Z,5.20
2022-09-05T13:19:55.227Z,6.32
2022-09-05T13:22:05.280Z,6.47
2022-09-05T13:24:15.635Z,7.90
2022-09-05T13:26:28.656Z,5.68
2022-09-05T13:28:46.640Z,5.82
2022-09-05T13:37:01.350Z,6.85
2022-09-05T13:37:58.205Z,6.90
2022-09-05T13:38:13.698Z,8.63
2022-09-05T13:38:48.719Z,7.25
2022-09-05T13:41:02.379Z,6.88
2022-09-05T13:43:13.524Z,8.13
2022-09-05T13:45:21.665Z,7.95
2022-09-05T13:47:53.931Z,7.50
2022-09-05T13:50:15.294Z,7.10
2022-09-05T13:52:31.655Z,7.30
2022-09-05T13:54:50.806Z,8.70
2022-09-05T13:57:31.656Z,9.98
2022-09-05T13:59:46.232Z,9.75
2022-09-05T14:02:28.361Z,8.30
2022-09-05T14:05:19.425Z,10.13
2022-09-05T14:08:18.978Z,7.80
2022-09-05T14:11:10.112Z,8.60
2022-09-05T14:13:23.528Z,11.18
2022-09-05T14:15:40.149Z,7.85
2022-09-05T14:18:02.089Z,8.55
2022-09-05T14:20:54.204Z,6.72
2022-09-05T14:23:09.168Z,8.95
2022-09-05T14:25:23.121Z,7.85
2022-09-05T14:27:32.683Z,10.25
2022-09-05T14:29:42.798Z,11.57
2022-09-05T14:37:36.916Z,10.55
2022-09-05T14:37:49.871Z,10.40
2022-09-05T14:38:13.266Z,9.93
2022-09-05T14:40:47.813Z,11.45
2022-09-05T14:43:27.042Z,11.18
2022-09-05T14:45:51.378Z,10.65
2022-09-05T14:48:31.510Z,9.30
2022-09-05T14:50:59.640Z,10.70
2022-09-05T14:56:23.162Z,10.73
2022-09-05T15:02:38.747Z,11.60
2022-09-05T15:02:58.246Z,10.63
2022-09-05T15:05:55.997Z,9.68
2022-09-05T15:08:22.695Z,12.25
2022-09-05T15:12:14.875Z,10.17
2022-09-05T15:13:10.865Z,9.80
2022-09-05T15:15:26.881Z,9.20
2022-09-05T15:17:35.082Z,13.23
2022-09-05T15:20:05.757Z,11.82
2022-09-05T15:22:27.448Z,11.82
2022-09-05T15:24:34.668Z,11.20
2022-09-05T15:26:53.564Z,10.32
2022-09-05T15:29:14.723Z,12.07
2022-09-05T15:31:29.143Z,13.20
2022-09-05T15:33:37.035Z,14.60
2022-09-05T15:35:46.062Z,13.48
2022-09-05T15:37:53.291Z,13.95
2022-09-05T15:40:22.482Z,13.55
2022-09-05T15:42:35.367Z,12.40
2022-09-05T15:45:06.431Z,11.52
2022-09-05T15:47:11.649Z,11.90
2022-09-05T15:49:29.975Z,10.93
2022-09-05T15:51:47.963Z,13.75
2022-09-05T15:53:57.450Z,12.90
2022-09-05T15:56:18.641Z,10.75
2022-09-05T15:58:35.965Z,15.00
2022-09-05T16:00:56.668Z,12.35
2022-09-05T16:03:58.152Z,12.27
2022-09-05T16:10:28.191Z,13.30
2022-09-05T16:10:46.930Z,11.93
2022-09-05T16:11:04.499Z,12.20
2022-09-05T16:13:03.575Z,11.93
2022-09-05T16:16:01.346Z,13.57
2022-09-05T16:23:13.618Z,13.27
2022-09-05T16:23:31.186Z,17.02
2022-09-05T16:23:32.671Z,13.07
2022-09-05T16:25:29.134Z,11.68
2022-09-05T16:27:53.272Z,11.95
2022-09-05T16:30:00.612Z,12.23
2022-09-05T16:32:18.029Z,15.52
2022-09-05T16:34:34.951Z,11.23
2022-09-05T16:37:05.135Z,11.77
2022-09-05T16:39:21.056Z,10.40
2022-09-05T16:41:38.776Z,11.23
2022-09-05T16:43:52.050Z,10.32
2022-09-05T16:46:06.601Z,12.30
2022-09-05T16:48:34.987Z,12.13
2022-09-05T16:50:49.290Z,9.75
2022-09-05T16:53:37.455Z,11.20
2022-09-05T16:55:49.279Z,9.95
2022-09-05T16:58:08.946Z,9.48
2022-09-05T17:00:22.130Z,9.70
2022-09-05T17:02:33.418Z,8.70
2022-09-05T17:05:08.020Z,11.88
2022-09-05T17:07:22.216Z,10.35
2022-09-05T17:09:30.889Z,11.27
2022-09-05T17:12:00.758Z,9.38
2022-09-05T17:14:16.271Z,12.95
2022-09-05T17:16:32.883Z,11.82
2022-09-05T17:18:41.640Z,11.23
2022-09-05T17:20:54.454Z,13.35
2022-09-05T17:29:18.858Z,11.73
2022-09-05T17:29:21.066Z,11.02
2022-09-05T17:29:24.591Z,12.80
2022-09-05T17:33:43.454Z,13.77
2022-09-05T17:36:11.656Z,12.68
2022-09-05T17:38:59.338Z,11.10
2022-09-05T17:41:45.892Z,13.82
2022-09-05T17:44:00.145Z,14.15
2022-09-05T17:46:22.116Z,10.85
2022-09-05T17:51:17.238Z,11.57
2022-09-05T17:53:32.014Z,14.00
2022-09-05T17:56:15.541Z,16.08
2022-09-05T17:58:28.231Z,15.50
2022-09-05T18:01:08.691Z,12.60
2022-09-05T18:03:35.959Z,13.32
2022-09-05T18:06:05.574Z,12.02
2022-09-05T18:08:35.531Z,13.77
2022-09-05T18:11:08.921Z,11.40
2022-09-05T18:13:31.784Z,11.43
2022-09-05T18:16:13.320Z,13.88
2022-09-05T18:19:32.230Z,11.48
2022-09-05T18:23:54.244Z,14.18
2022-09-05T18:26:05.500Z,12.15
2022-09-05T18:28:24.084Z,12.65
2022-09-05T18:33:56.185Z,11.25
2022-09-05T18:35:38.421Z,13.15
2022-09-05T18:38:51.436Z,13.98
2022-09-05T18:41:22.075Z,12.80
2022-09-05T18:43:36.740Z,11.57
2022-09-05T18:45:52.352Z,12.80
2022-09-05T18:48:02.936Z,15.50
2022-09-05T18:50:24.760Z,14.63
2022-09-05T18:52:37.207Z,12.52
2022-09-05T18:54:52.093Z,12.30
2022-09-05T18:57:28.291Z,11.65
2022-09-05T18:59:39.510Z,11.75
2022-09-05T19:02:00.731Z,10.25
2022-09-05T19:04:10.715Z,14.55
2022-09-05T19:06:45.296Z,14.40
2022-09-05T19:08:58.890Z,11.77
2022-09-05T19:11:28.476Z,12.13
2022-09-05T19:13:40.379Z,14.35
2022-09-05T19:15:58.745Z,13.30
2022-09-05T19:18:27.459Z,14.93
2022-09-05T19:20:58.039Z,13.82
2022-09-05T19:23:14.495Z,16.38
2022-09-05T19:25:30.616Z,11.38
2022-09-05T19:35:21.582Z,14.80
2022-09-05T19:36:46.815Z,14.70
2022-09-05T19:37:05.138Z,11.95
2022-09-05T19:37:22.834Z,15.27
2022-09-05T19:37:52.255Z,14.55
2022-09-05T19:44:32.444Z,12.40
2022-09-05T19:47:40.242Z,13.80
2022-09-05T19:47:41.874Z,11.57
2022-09-05T19:48:03.854Z,12.85
2022-09-05T19:50:06.931Z,16.13
2022-09-05T19:54:30.668Z,15.23
2022-09-05T19:56:41.689Z,14.32
2022-09-05T19:58:49.152Z,12.67
2022-09-05T20:01:09.221Z,12.73
2022-09-05T20:03:24.192Z,12.45
2022-09-05T20:05:31.971Z,12.13
2022-09-05T20:07:50.465Z,14.77
2022-09-05T20:09:59.360Z,12.20
2022-09-05T20:12:07.857Z,12.95
2022-09-05T20:14:28.189Z,12.50
2022-09-05T20:16:35.427Z,12.25
2022-09-05T20:18:45.391Z,11.63
2022-09-05T20:21:01.160Z,11.40
2022-09-05T20:23:11.167Z,13.18
2022-09-05T20:25:35.347Z,13.40
2022-09-05T20:27:44.255Z,12.82
2022-09-05T20:29:59.229Z,14.98
2022-09-05T20:32:07.322Z,12.65
2022-09-05T20:38:04.788Z,13.65
2022-09-05T20:43:25.330Z,16.05
2022-09-05T20:43:27.334Z,16.70
2022-09-05T20:44:22.693Z,25.55
2022-09-05T20:50:58.288Z,30.25
2022-09-05T20:54:08.193Z,23.88
2022-09-05T20:54:25.870Z,18.90
2022-09-05T20:54:54.553Z,18.33
2022-09-05T20:57:32.424Z,19.58
2022-09-05T20:59:58.093Z,16.17
2022-09-05T21:04:41.025Z,17.92
2022-09-05T21:09:25.067Z,13.10
2022-09-05T21:11:34.774Z,17.85
2022-09-05T21:13:52.623Z,13.95
2022-09-05T21:16:19.592Z,14.00
2022-09-05T21:18:33.091Z,14.68
2022-09-05T21:25:56.896Z,15.98
2022-09-05T21:28:06.475Z,15.13
2022-09-05T21:32:50.226Z,15.25
2022-09-05T21:35:34.740Z,14.48
2022-09-05T21:37:44.836Z,14.93
2022-09-05T21:39:59.899Z,13.10
2022-09-05T21:47:42.246Z,15.45
2022-09-05T21:47:46.740Z,13.27
2022-09-05T21:49:26.894Z,13.63
2022-09-05T21:51:34.535Z,14.07
2022-09-05T21:59:21.048Z,12.82
2022-09-05T21:59:21.157Z,14.85
2022-09-05T21:59:28.596Z,13.68
2022-09-05T22:01:51.414Z,15.40
2022-09-05T22:03:54.486Z,16.70
2022-09-05T22:06:07.381Z,15.68
2022-09-05T22:08:15.555Z,20.10
2022-09-05T22:10:35.434Z,17.67
2022-09-05T22:12:52.361Z,19.45
2022-09-05T22:15:11.485Z,18.30
2022-09-05T22:17:27.130Z,19.45
2022-09-05T22:19:37.680Z,20.67
2022-09-05T22:21:45.203Z,19.25
2022-09-05T22:23:54.924Z,17.02
2022-09-05T22:26:06.405Z,19.02
2022-09-05T22:28:17.234Z,20.80
2022-09-05T22:30:24.452Z,20.52
2022-09-05T22:32:34.295Z,18.52
2022-09-05T22:34:42.776Z,20.58
2022-09-05T22:36:51.952Z,21.77
2022-09-05T22:38:59.381Z,19.65
2022-09-05T22:41:08.770Z,20.90
2022-09-05T22:43:15.991Z,16.90
2022-09-05T22:45:23.329Z,16.77
2022-09-05T22:47:50.271Z,15.93
2022-09-05T22:49:57.308Z,18.35
2022-09-05T22:52:22.004Z,18.15
2022-09-05T22:54:29.179Z,18.38
2022-09-05T22:56:40.456Z,22.25
2022-09-05T22:58:48.570Z,16.63
2022-09-05T23:00:56.414Z,15.48
2022-09-05T23:03:04.503Z,15.65
2022-09-05T23:05:12.311Z,17.17
2022-09-05T23:07:19.227Z,18.33
2022-09-05T23:09:26.338Z,20.90
2022-09-05T23:11:33.698Z,18.08
2022-09-05T23:13:42.976Z,17.92
2022-09-05T23:15:50.230Z,22.58
2022-09-05T23:17:57.759Z,20.45
2022-09-05T23:20:06.424Z,17.80
2022-09-05T23:22:13.448Z,20.20
2022-09-05T23:24:20.933Z,25.10
2022-09-05T23:26:27.916Z,25.27
2022-09-05T23:28:37.434Z,20.92
2022-09-05T23:30:50.478Z,23.75
2022-09-05T23:32:57.810Z,21.50
2022-09-05T23:35:05.138Z,21.35
2022-09-05T23:37:12.677Z,22.05
2022-09-05T23:39:20.222Z,22.45
2022-09-05T23:41:27.559Z,23.40
2022-09-05T23:43:35.139Z,22.23
2022-09-05T23:45:42.485Z,21.15
2022-09-05T23:47:51.343Z,21.83
2022-09-05T23:49:58.582Z,21.85
2022-09-05T23:52:05.811Z,20.42
2022-09-05T23:54:13.157Z,23.40
2022-09-05T23:56:20.174Z,21.13
2022-09-05T23:58:27.626Z,21.85
